Time;durP1;ratioP1;P1;durP2;ratioP2;P2;SDS_P1;SDS_P2;PMS_P1;PMS_P2;Temp;Humidity;BMP_temperature;BMP_pressure;BME280_temperature;BME280_humidity;BME280_pressure;Samples;Min_cycle;Max_cycle;Signal;HPM_P1;HPM_P2
2021/05/04 00:01:36;;;;;;;5.78;3.30;;;9.90;99.90;;;;;;5070034;28;20035;-60
2021/05/04 00:04:02;;;;;;;3.72;3.08;;;9.80;99.90;;;;;;5070488;28;20023;-60
2021/05/04 00:06:28;;;;;;;5.45;3.53;;;9.70;99.90;;;;;;5070863;28;20551;-59
2021/05/04 00:08:53;;;;;;;4.43;2.92;;;9.60;99.90;;;;;;5070721;28;20051;-60
2021/05/04 00:11:19;;;;;;;6.05;3.60;;;9.50;99.90;;;;;;5069307;28;20028;-59
2021/05/04 00:13:44;;;;;;;8.48;3.28;;;9.40;99.90;;;;;;5070656;28;20137;-59
2021/05/04 00:16:10;;;;;;;9.70;4.15;;;9.30;99.90;;;;;;5069281;28;20031;-59
2021/05/04 00:18:36;;;;;;;6.57;4.25;;;9.30;99.90;;;;;;5070125;28;20036;-59
2021/05/04 00:21:02;;;;;;;5.80;3.50;;;9.20;99.90;;;;;;5070205;28;20111;-60
2021/05/04 00:23:28;;;;;;;9.23;4.20;;;9.20;99.90;;;;;;5070394;28;20120;-60
2021/05/04 00:25:53;;;;;;;6.78;4.22;;;9.00;99.90;;;;;;5069925;28;20102;-60
2021/05/04 00:28:19;;;;;;;8.65;4.28;;;9.00;99.90;;;;;;5070513;28;20025;-60
2021/05/04 00:30:45;;;;;;;9.00;4.35;;;8.90;99.90;;;;;;5070010;28;20472;-59
2021/05/04 00:33:11;;;;;;;6.93;4.28;;;8.90;99.90;;;;;;5071028;28;20117;-60
2021/05/04 00:35:37;;;;;;;7.60;3.90;;;8.80;99.90;;;;;;5073755;28;20035;-60
2021/05/04 00:38:02;;;;;;;4.30;3.90;;;8.70;99.90;;;;;;5073880;28;20034;-61
2021/05/04 00:40:28;;;;;;;8.57;3.72;;;8.70;99.90;;;;;;5073634;28;20028;-60
2021/05/04 00:42:54;;;;;;;6.10;3.60;;;8.50;99.90;;;;;;5073627;28;20165;-60
2021/05/04 00:45:20;;;;;;;7.00;3.15;;;8.50;99.90;;;;;;5073436;28;20063;-59
2021/05/04 00:47:46;;;;;;;11.13;5.22;;;8.50;99.90;;;;;;5073639;28;20051;-58
2021/05/04 00:50:12;;;;;;;10.00;4.85;;;8.50;99.90;;;;;;5073706;28;20461;-58
2021/05/04 00:52:38;;;;;;;7.78;4.45;;;8.40;99.90;;;;;;5073312;28;20028;-58
2021/05/04 00:55:04;;;;;;;9.35;4.13;;;8.40;99.90;;;;;;5073566;28;20028;-58
2021/05/04 00:57:33;;;;;;;7.03;5.25;;;8.40;99.90;;;;;;5073608;28;20035;-59
2021/05/04 01:00:05;;;;;;;4.95;3.40;;;8.40;99.90;;;;;;5073023;28;20726;-58
2021/05/04 01:02:32;;;;;;;6.85;3.20;;;8.40;99.90;;;;;;5073476;28;20451;-58
2021/05/04 01:04:58;;;;;;;9.13;3.90;;;8.40;99.90;;;;;;5073467;28;20032;-58
2021/05/04 01:07:26;;;;;;;3.42;2.88;;;8.40;99.90;;;;;;5073338;28;20028;-58
2021/05/04 01:09:52;;;;;;;7.72;3.28;;;8.40;99.90;;;;;;5073665;28;20016;-58
2021/05/04 01:12:17;;;;;;;4.50;3.50;;;8.50;99.90;;;;;;5073128;28;20395;-57
2021/05/04 01:14:43;;;;;;;4.30;3.33;;;8.60;99.90;;;;;;5073202;28;20028;-57
2021/05/04 01:17:08;;;;;;;5.10;3.28;;;8.60;99.90;;;;;;5073803;28;20025;-58
2021/05/04 01:19:34;;;;;;;2.72;1.90;;;8.60;99.90;;;;;;5073207;28;20020;-58
2021/05/04 01:22:00;;;;;;;5.90;3.60;;;8.60;99.90;;;;;;5073186;28;20033;-58
2021/05/04 01:24:25;;;;;;;7.50;3.30;;;8.50;99.90;;;;;;5073203;28;20481;-58
2021/05/04 01:26:51;;;;;;;6.40;3.40;;;8.50;99.90;;;;;;5073275;28;20049;-58
2021/05/04 01:29:17;;;;;;;4.38;3.22;;;8.50;99.90;;;;;;5072791;28;20329;-59
2021/05/04 01:31:43;;;;;;;4.32;2.83;;;8.50;99.90;;;;;;5073089;28;20021;-58
2021/05/04 01:34:10;;;;;;;5.68;3.17;;;8.40;99.90;;;;;;5072857;28;20016;-58
2021/05/04 01:36:36;;;;;;;5.78;2.47;;;8.50;99.90;;;;;;5072957;28;20020;-58
2021/05/04 01:39:09;;;;;;;5.68;3.25;;;8.60;99.90;;;;;;5072973;28;20033;-59
2021/05/04 01:41:35;;;;;;;4.05;1.88;;;8.70;99.90;;;;;;5072196;28;20031;-58
2021/05/04 01:44:01;;;;;;;4.63;2.28;;;8.80;99.90;;;;;;5072830;28;20035;-58
2021/05/04 01:46:31;;;;;;;3.45;1.73;;;8.90;99.90;;;;;;5072716;28;20064;-58
2021/05/04 01:48:58;;;;;;;4.78;3.10;;;8.90;99.90;;;;;;5072505;28;20031;-58
2021/05/04 01:51:26;;;;;;;5.05;2.10;;;8.90;99.90;;;;;;5072593;28;20483;-57
2021/05/04 01:53:51;;;;;;;4.30;2.30;;;9.00;99.90;;;;;;5072518;28;20029;-58
2021/05/04 01:56:17;;;;;;;3.20;1.67;;;9.00;99.90;;;;;;5072759;28;20377;-58
2021/05/04 01:58:43;;;;;;;6.00;3.03;;;9.10;99.90;;;;;;5072315;28;20024;-58
2021/05/04 02:01:09;;;;;;;8.82;2.40;;;9.10;99.90;;;;;;5072243;28;20035;-58
2021/05/04 02:03:34;;;;;;;6.32;2.00;;;9.20;99.90;;;;;;5072527;28;20032;-59
2021/05/04 02:06:00;;;;;;;1.50;1.40;;;9.20;99.90;;;;;;5071956;28;20032;-58
2021/05/04 02:08:25;;;;;;;4.18;2.20;;;9.20;99.90;;;;;;5072563;28;20045;-58
2021/05/04 02:10:51;;;;;;;7.28;2.20;;;9.30;99.90;;;;;;5072054;28;20037;-58
2021/05/04 02:13:16;;;;;;;3.42;1.70;;;9.40;99.90;;;;;;5072095;28;20484;-59
2021/05/04 02:15:42;;;;;;;6.03;1.60;;;9.40;99.90;;;;;;5072548;28;20024;-58
2021/05/04 02:18:08;;;;;;;6.00;2.13;;;9.40;99.90;;;;;;5072097;28;20036;-58
2021/05/04 02:20:33;;;;;;;4.15;1.88;;;9.30;99.90;;;;;;5071910;28;20024;-58
2021/05/04 02:22:59;;;;;;;3.25;1.45;;;9.30;99.90;;;;;;5072075;28;20040;-58
2021/05/04 02:25:24;;;;;;;5.10;2.03;;;9.30;99.90;;;;;;5071705;28;20058;-58
2021/05/04 02:27:50;;;;;;;3.13;1.90;;;9.40;99.90;;;;;;5071961;28;20024;-58
2021/05/04 02:30:16;;;;;;;2.22;1.63;;;9.40;99.90;;;;;;5071554;28;20040;-58
2021/05/04 02:32:41;;;;;;;3.25;1.70;;;9.40;99.90;;;;;;5071717;28;20328;-59
2021/05/04 02:35:08;;;;;;;3.70;1.83;;;9.40;99.90;;;;;;5071607;28;20380;-58
2021/05/04 02:37:33;;;;;;;1.48;1.20;;;9.50;99.90;;;;;;5071633;28;20025;-59
2021/05/04 02:39:59;;;;;;;2.22;1.58;;;9.50;99.90;;;;;;5071474;28;20031;-59
2021/05/04 02:42:25;;;;;;;3.67;1.42;;;9.60;99.90;;;;;;5071395;28;20473;-58
2021/05/04 02:44:50;;;;;;;5.60;1.45;;;9.60;99.90;;;;;;5071429;28;20031;-58
2021/05/04 02:47:16;;;;;;;2.33;1.02;;;9.60;99.90;;;;;;5071676;28;20440;-58
2021/05/04 02:49:42;;;;;;;1.95;1.50;;;9.70;99.90;;;;;;5071627;28;20020;-58
2021/05/04 02:52:07;;;;;;;4.22;1.00;;;9.80;99.90;;;;;;5071296;28;20366;-58
2021/05/04 02:54:33;;;;;;;1.50;1.17;;;9.80;99.90;;;;;;5071213;28;20686;-58
2021/05/04 02:56:58;;;;;;;7.63;1.80;;;9.90;99.90;;;;;;5071181;28;20074;-58
2021/05/04 02:59:24;;;;;;;2.83;1.48;;;9.80;99.90;;;;;;5071299;28;20052;-58
2021/05/04 03:01:50;;;;;;;1.55;1.20;;;9.80;99.90;;;;;;5070968;28;20107;-58
2021/05/04 03:04:15;;;;;;;3.60;1.45;;;9.80;99.90;;;;;;5070947;28;20032;-59
2021/05/04 03:06:41;;;;;;;3.47;2.00;;;9.80;99.90;;;;;;5071118;28;20037;-58
2021/05/04 03:09:06;;;;;;;2.80;1.70;;;9.80;99.90;;;;;;5069872;28;20020;-58
2021/05/04 03:11:32;;;;;;;3.55;1.60;;;9.80;99.90;;;;;;5071029;28;20029;-57
2021/05/04 03:13:58;;;;;;;3.55;1.42;;;9.80;99.90;;;;;;5070897;28;20135;-58
2021/05/04 03:16:23;;;;;;;3.40;1.70;;;9.90;99.90;;;;;;5071085;28;20028;-58
2021/05/04 03:18:49;;;;;;;2.20;1.42;;;9.90;99.90;;;;;;5070975;28;20029;-58
2021/05/04 03:21:14;;;;;;;8.70;1.90;;;9.80;99.90;;;;;;5071227;28;20548;-58
2021/05/04 03:23:40;;;;;;;1.92;1.52;;;9.80;99.90;;;;;;5070992;28;20126;-58
2021/05/04 03:26:06;;;;;;;2.90;1.67;;;9.80;99.90;;;;;;5071060;28;20139;-58
2021/05/04 03:28:31;;;;;;;6.25;1.65;;;9.80;99.90;;;;;;5070879;28;20113;-58
2021/05/04 03:30:57;;;;;;;1.20;1.10;;;9.90;99.90;;;;;;5070562;28;20020;-57
2021/05/04 03:33:22;;;;;;;3.03;1.50;;;9.90;99.90;;;;;;5070953;28;20021;-58
2021/05/04 03:35:48;;;;;;;3.67;1.25;;;9.90;99.90;;;;;;5069366;28;20024;-58
2021/05/04 03:38:14;;;;;;;1.98;1.55;;;9.90;99.90;;;;;;5070925;28;20020;-58
2021/05/04 03:40:39;;;;;;;3.60;1.20;;;9.90;99.90;;;;;;5069501;28;20423;-58
2021/05/04 03:43:05;;;;;;;0.95;0.77;;;9.90;99.90;;;;;;5070638;28;20040;-58
2021/05/04 03:45:31;;;;;;;2.30;1.40;;;9.90;99.90;;;;;;5070793;28;20028;-58
2021/05/04 03:47:57;;;;;;;2.90;1.05;;;9.90;99.90;;;;;;5071062;28;20020;-59
2021/05/04 03:50:25;;;;;;;3.55;1.52;;;9.80;99.90;;;;;;5070893;28;20461;-58
2021/05/04 03:52:51;;;;;;;2.38;1.50;;;9.60;99.90;;;;;;5070866;28;20020;-58
2021/05/04 03:55:18;;;;;;;5.97;1.77;;;9.60;99.90;;;;;;5070634;28;20487;-58
2021/05/04 03:57:44;;;;;;;2.72;1.58;;;9.60;99.90;;;;;;5071149;28;20048;-58
2021/05/04 04:00:11;;;;;;;4.80;1.60;;;9.60;99.90;;;;;;5070358;28;20063;-58
2021/05/04 04:02:37;;;;;;;5.10;1.92;;;9.50;99.90;;;;;;5070635;28;20563;-58
2021/05/04 04:05:04;;;;;;;2.60;1.65;;;9.40;99.90;;;;;;5070575;28;20138;-58
2021/05/04 04:07:30;;;;;;;3.53;1.95;;;9.40;99.90;;;;;;5070610;28;20032;-58
2021/05/04 04:09:55;;;;;;;6.00;2.08;;;9.30;99.90;;;;;;5074368;28;20016;-59
2021/05/04 04:12:21;;;;;;;3.55;2.00;;;9.40;99.90;;;;;;5074366;28;20028;-58
2021/05/04 04:14:47;;;;;;;3.50;1.90;;;9.30;99.90;;;;;;5074881;28;20032;-59
2021/05/04 04:17:13;;;;;;;1.80;1.17;;;9.20;99.90;;;;;;5074418;28;20115;-58
2021/05/04 04:19:38;;;;;;;5.97;1.70;;;9.30;99.90;;;;;;5074090;28;20056;-58
2021/05/04 04:22:04;;;;;;;5.43;2.05;;;9.30;99.90;;;;;;5072559;28;20379;-58
2021/05/04 04:24:30;;;;;;;2.03;1.63;;;9.40;99.90;;;;;;5072833;28;20029;-58
2021/05/04 04:26:56;;;;;;;2.05;1.60;;;9.50;99.90;;;;;;5074089;28;20045;-59
2021/05/04 04:29:22;;;;;;;1.55;1.30;;;9.50;99.90;;;;;;5073787;28;20031;-58
2021/05/04 04:31:47;;;;;;;2.65;1.50;;;9.50;99.90;;;;;;5072748;28;20481;-58
2021/05/04 04:34:13;;;;;;;3.42;1.65;;;9.60;99.90;;;;;;5073990;28;20082;-57
2021/05/04 04:36:38;;;;;;;2.53;1.42;;;9.50;99.90;;;;;;5074247;28;20036;-58
2021/05/04 04:39:04;;;;;;;6.28;1.52;;;9.50;99.90;;;;;;5073879;28;20054;-61
2021/05/04 04:41:30;;;;;;;5.60;2.13;;;9.60;99.90;;;;;;5073621;28;20433;-58
2021/05/04 04:43:55;;;;;;;2.63;1.50;;;9.60;99.90;;;;;;5072689;28;20063;-58
2021/05/04 04:46:21;;;;;;;3.10;1.98;;;9.60;99.90;;;;;;5073519;28;20024;-59
2021/05/04 04:48:47;;;;;;;6.57;2.00;;;9.80;99.90;;;;;;5073556;28;20025;-59
2021/05/04 04:51:13;;;;;;;6.28;2.15;;;9.80;99.90;;;;;;5073517;28;20031;-58
2021/05/04 04:53:38;;;;;;;5.55;1.63;;;9.90;99.90;;;;;;5073572;28;20113;-58
2021/05/04 04:56:04;;;;;;;2.45;1.10;;;9.90;99.90;;;;;;5073712;28;20020;-59
2021/05/04 04:58:30;;;;;;;6.43;1.90;;;10.00;99.90;;;;;;5073274;28;20389;-59
2021/05/04 05:00:55;;;;;;;7.93;1.65;;;10.00;99.90;;;;;;5073438;28;20024;-59
2021/05/04 05:03:24;;;;;;;7.75;2.10;;;10.00;99.90;;;;;;5073266;28;20035;-59
2021/05/04 05:05:53;;;;;;;7.03;1.63;;;10.10;99.90;;;;;;5073179;28;20024;-59
2021/05/04 05:08:19;;;;;;;8.85;2.25;;;10.10;99.90;;;;;;5073275;28;20458;-59
2021/05/04 05:10:44;;;;;;;8.32;2.60;;;10.10;99.90;;;;;;5072937;28;20048;-59
2021/05/04 05:13:10;;;;;;;8.85;2.58;;;10.10;99.90;;;;;;5073087;28;20029;-59
2021/05/04 05:15:40;;;;;;;9.02;2.50;;;10.10;99.90;;;;;;5073260;28;20019;-59
2021/05/04 05:18:07;;;;;;;8.55;2.30;;;10.00;99.90;;;;;;5073220;28;20031;-60
2021/05/04 05:20:34;;;;;;;9.63;2.40;;;10.00;99.90;;;;;;5072698;28;20027;-59
2021/05/04 05:23:00;;;;;;;4.97;1.67;;;10.00;99.90;;;;;;5073160;28;20067;-59
2021/05/04 05:25:26;;;;;;;4.68;2.15;;;10.00;99.90;;;;;;5072718;28;20451;-59
2021/05/04 05:27:52;;;;;;;5.68;1.45;;;10.00;99.90;;;;;;5073006;28;20016;-59
2021/05/04 05:30:17;;;;;;;8.57;2.47;;;10.00;99.90;;;;;;5072966;28;20036;-59
2021/05/04 05:32:43;;;;;;;3.25;1.58;;;10.00;99.90;;;;;;5072953;28;20444;-59
2021/05/04 05:35:09;;;;;;;5.35;1.73;;;10.00;99.90;;;;;;5072622;28;20021;-58
2021/05/04 05:37:35;;;;;;;9.93;2.28;;;10.10;99.90;;;;;;5071446;28;20028;-58
2021/05/04 05:40:01;;;;;;;10.25;2.08;;;10.00;99.90;;;;;;5070275;28;20466;-58
2021/05/04 05:42:26;;;;;;;12.27;2.53;;;10.00;99.90;;;;;;5069916;28;20481;-58
2021/05/04 05:44:52;;;;;;;6.45;2.15;;;9.90;99.90;;;;;;5072570;28;20067;-58
2021/05/04 05:47:18;;;;;;;10.60;2.90;;;9.80;99.90;;;;;;5071126;28;20491;-58
2021/05/04 05:49:43;;;;;;;14.18;2.80;;;9.90;99.90;;;;;;5071125;28;20100;-58
2021/05/04 05:52:09;;;;;;;10.13;3.03;;;9.80;99.90;;;;;;5072221;28;20012;-58
2021/05/04 05:54:35;;;;;;;17.23;3.20;;;9.80;99.90;;;;;;5068028;28;20104;-58
2021/05/04 05:57:01;;;;;;;11.68;3.13;;;9.90;99.90;;;;;;5064097;28;20394;-58
2021/05/04 05:59:27;;;;;;;13.77;2.97;;;9.90;99.90;;;;;;5070000;28;20158;-58
2021/05/04 06:01:52;;;;;;;14.70;2.55;;;10.00;99.90;;;;;;5068788;28;20021;-58
2021/05/04 06:04:18;;;;;;;16.85;3.70;;;10.00;99.90;;;;;;5068535;28;20033;-58
2021/05/04 06:06:44;;;;;;;14.23;4.03;;;10.10;99.90;;;;;;5062048;28;20131;-59
2021/05/04 06:09:09;;;;;;;22.75;3.25;;;10.10;99.90;;;;;;5059525;28;20424;-59
2021/05/04 06:11:35;;;;;;;11.20;2.63;;;10.10;99.90;;;;;;5053254;28;20017;-58
2021/05/04 06:14:01;;;;;;;15.30;3.08;;;10.10;99.90;;;;;;5053550;28;20111;-58
2021/05/04 06:16:26;;;;;;;18.98;3.25;;;10.10;99.90;;;;;;5065416;28;20404;-58
2021/05/04 06:18:52;;;;;;;22.00;3.92;;;10.10;99.90;;;;;;5061369;28;20033;-59
2021/05/04 06:21:18;;;;;;;18.25;3.88;;;10.00;99.90;;;;;;5059615;28;20389;-58
2021/05/04 06:23:43;;;;;;;18.10;4.25;;;10.10;99.90;;;;;;5064891;28;20060;-58
2021/05/04 06:26:09;;;;;;;14.73;2.90;;;10.00;99.90;;;;;;5059778;28;20068;-59
2021/05/04 06:28:35;;;;;;;15.30;2.72;;;10.00;99.90;;;;;;5058701;28;20048;-59
2021/05/04 06:31:03;;;;;;;13.38;2.42;;;9.80;99.90;;;;;;5080136;28;20372;-59
2021/05/04 06:33:28;;;;;;;21.00;3.63;;;9.60;99.90;;;;;;5075145;28;20017;-60
2021/05/04 06:35:54;;;;;;;18.90;3.10;;;9.50;99.90;;;;;;5059378;28;20059;-61
2021/05/04 06:38:19;;;;;;;18.95;3.40;;;9.40;99.90;;;;;;5061020;28;20024;-60
2021/05/04 06:40:48;;;;;;;19.95;4.03;;;9.30;99.90;;;;;;5053860;28;20524;-60
2021/05/04 06:43:14;;;;;;;15.48;2.88;;;9.30;99.90;;;;;;5053127;28;20189;-60
2021/05/04 06:45:40;;;;;;;23.35;4.13;;;9.20;99.90;;;;;;5053344;28;20473;-59
2021/05/04 06:48:07;;;;;;;19.30;2.88;;;9.30;99.90;;;;;;5055624;28;20087;-59
2021/05/04 06:50:34;;;;;;;18.63;3.40;;;9.30;99.90;;;;;;5053421;28;20048;-59
2021/05/04 06:52:59;;;;;;;15.32;2.70;;;9.50;99.90;;;;;;5051637;28;20124;-59
2021/05/04 06:55:25;;;;;;;12.43;2.50;;;9.70;99.90;;;;;;5050693;28;20112;-59
2021/05/04 06:57:51;;;;;;;13.02;2.33;;;9.80;99.90;;;;;;5045027;28;20021;-59
2021/05/04 07:00:18;;;;;;;16.40;2.90;;;10.10;99.90;;;;;;5048156;28;20501;-59
2021/05/04 07:02:43;;;;;;;19.90;4.35;;;10.20;99.90;;;;;;5052389;28;20108;-59
2021/05/04 07:05:10;;;;;;;12.63;3.40;;;10.30;99.90;;;;;;5057401;28;20135;-59
2021/05/04 07:07:35;;;;;;;19.58;3.13;;;10.50;99.90;;;;;;5058027;28;20029;-59
2021/05/04 07:10:02;;;;;;;9.23;2.03;;;10.70;99.90;;;;;;5052807;28;20028;-59
2021/05/04 07:12:28;;;;;;;14.82;2.97;;;10.90;99.90;;;;;;5049976;28;20496;-58
2021/05/04 07:14:53;;;;;;;15.25;2.22;;;10.80;99.90;;;;;;5053882;28;20028;-59
2021/05/04 07:17:19;;;;;;;21.45;3.47;;;10.80;99.90;;;;;;5055011;28;20037;-59
2021/05/04 07:19:44;;;;;;;15.85;3.10;;;10.90;99.90;;;;;;5053357;28;20032;-60
2021/05/04 07:22:13;;;;;;;13.23;2.45;;;11.00;99.90;;;;;;5063937;28;20507;-58
2021/05/04 07:24:39;;;;;;;20.45;3.35;;;11.00;99.90;;;;;;5059201;28;20025;-59
2021/05/04 07:27:06;;;;;;;10.73;1.98;;;11.00;99.90;;;;;;5055175;28;20055;-59
2021/05/04 07:29:35;;;;;;;17.50;3.67;;;11.00;99.90;;;;;;5054387;28;20082;-58
2021/05/04 07:32:03;;;;;;;13.43;2.00;;;11.00;99.90;;;;;;5060808;28;20479;-59
2021/05/04 07:34:28;;;;;;;18.58;3.65;;;11.00;99.90;;;;;;5048384;28;20056;-58
2021/05/04 07:36:54;;;;;;;20.15;3.70;;;11.00;99.90;;;;;;5047004;28;20481;-59
2021/05/04 07:39:19;;;;;;;13.23;2.42;;;10.90;99.90;;;;;;5059081;28;20391;-58
2021/05/04 07:41:45;;;;;;;27.05;4.40;;;10.70;99.90;;;;;;5051134;28;20786;-59
2021/05/04 07:44:11;;;;;;;26.80;4.93;;;10.40;99.90;;;;;;5055706;28;20028;-58
2021/05/04 07:46:36;;;;;;;27.75;4.43;;;10.20;99.90;;;;;;5064769;28;20028;-58
2021/05/04 07:49:04;;;;;;;21.73;3.83;;;10.30;99.90;;;;;;5061306;28;20048;-59
2021/05/04 07:51:30;;;;;;;22.33;3.88;;;10.30;99.90;;;;;;5063192;28;21549;-59
2021/05/04 07:53:56;;;;;;;25.40;3.42;;;10.40;99.90;;;;;;5063369;28;20146;-58
2021/05/04 07:56:21;;;;;;;17.27;3.72;;;10.40;99.90;;;;;;5065108;28;20053;-59
2021/05/04 07:58:47;;;;;;;21.35;4.38;;;10.50;99.90;;;;;;5063418;28;20028;-58
2021/05/04 08:01:12;;;;;;;24.83;4.85;;;10.50;99.90;;;;;;5050983;28;20040;-58
2021/05/04 08:03:38;;;;;;;18.38;3.20;;;10.50;99.90;;;;;;5065577;28;20063;-58
2021/05/04 08:06:04;;;;;;;13.75;1.88;;;10.60;99.90;;;;;;5064853;28;20121;-59
2021/05/04 08:08:30;;;;;;;21.70;3.25;;;10.60;99.90;;;;;;5058280;28;20412;-58
2021/05/04 08:10:55;;;;;;;12.95;2.78;;;10.70;99.90;;;;;;5054325;28;20709;-58
2021/05/04 08:13:21;;;;;;;12.32;2.28;;;10.80;99.90;;;;;;5052560;28;20038;-58
2021/05/04 08:15:49;;;;;;;22.55;4.30;;;10.60;99.90;;;;;;5062874;28;20658;-58
2021/05/04 08:18:16;;;;;;;25.98;4.05;;;10.60;99.90;;;;;;5064441;28;20457;-59
2021/05/04 08:20:53;;;;;;;15.75;2.90;;;10.50;99.90;;;;;;5056104;28;20035;-59
2021/05/04 08:23:21;;;;;;;19.88;4.10;;;10.60;99.90;;;;;;5052436;28;20056;-59
2021/05/04 08:25:47;;;;;;;20.25;3.75;;;10.70;99.90;;;;;;5062469;28;20037;-58
2021/05/04 08:28:12;;;;;;;15.23;3.05;;;10.80;99.90;;;;;;5060639;28;20295;-58
2021/05/04 08:30:38;;;;;;;18.48;4.03;;;11.40;99.90;;;;;;5055737;28;20384;-58
2021/05/04 08:33:05;;;;;;;29.00;4.40;;;12.10;99.90;;;;;;5049820;28;20080;-58
2021/05/04 08:35:30;;;;;;;17.95;3.45;;;12.10;99.90;;;;;;5048091;28;20028;-58
2021/05/04 08:37:56;;;;;;;18.33;3.13;;;11.60;99.90;;;;;;5057473;28;20071;-58
2021/05/04 08:40:24;;;;;;;14.25;2.00;;;11.40;99.90;;;;;;5060477;28;20481;-59
2021/05/04 08:42:50;;;;;;;16.63;2.63;;;11.10;99.90;;;;;;5046438;28;20050;-59
2021/05/04 08:45:16;;;;;;;7.22;1.55;;;11.00;99.90;;;;;;5054487;28;20028;-58
2021/05/04 08:47:47;;;;;;;7.80;1.52;;;11.10;99.90;;;;;;5059697;28;20032;-58
2021/05/04 08:50:18;;;;;;;12.55;2.22;;;11.00;99.90;;;;;;5053512;28;20443;-58
2021/05/04 08:52:44;;;;;;;8.32;1.95;;;11.00;99.90;;;;;;5054014;28;20021;-59
2021/05/04 08:55:11;;;;;;;7.82;1.88;;;11.00;99.90;;;;;;5060142;28;20067;-58
2021/05/04 08:57:38;;;;;;;14.52;2.00;;;11.00;99.90;;;;;;5054417;28;20029;-59
2021/05/04 09:00:13;;;;;;;12.70;2.35;;;11.00;99.90;;;;;;5047315;28;20035;-65
2021/05/04 09:03:05;;;;;;;12.88;1.98;;;11.10;99.90;;;;;;5063484;28;20033;-59
2021/05/04 09:05:36;;;;;;;13.23;2.50;;;11.20;99.90;;;;;;5049962;28;20060;-60
2021/05/04 09:08:07;;;;;;;11.90;1.97;;;11.20;99.90;;;;;;5043219;28;20048;-59
2021/05/04 09:13:11;;;;;;;11.43;2.28;;;11.10;99.90;;;;;;5055718;28;20029;-59
2021/05/04 09:21:11;;;;;;;11.50;2.03;;;12.00;99.90;;;;;;5065741;28;20481;-59
2021/05/04 09:23:42;;;;;;;17.48;1.80;;;12.10;99.90;;;;;;5061850;28;20047;-60
2021/05/04 09:26:35;;;;;;;9.77;2.20;;;12.20;99.90;;;;;;5054141;28;20132;-59
2021/05/04 09:29:07;;;;;;;;;;;12.20;99.90;;;;;;5058599;28;20020;-59
2021/05/04 09:31:36;;;;;;;12.00;2.28;;;12.00;99.90;;;;;;5061531;28;19911;-59
2021/05/04 09:34:13;;;;;;;13.73;2.42;;;11.80;99.90;;;;;;5064522;28;20503;-59
2021/05/04 09:36:48;;;;;;;15.05;2.22;;;11.70;99.90;;;;;;5057516;28;20044;-59
2021/05/04 09:39:27;;;;;;;10.35;3.20;;;11.50;99.90;;;;;;5061830;28;20036;-59
2021/05/04 09:41:57;;;;;;;16.70;2.33;;;11.40;99.90;;;;;;5059628;28;20385;-59
2021/05/04 09:44:43;;;;;;;12.15;2.88;;;11.40;99.90;;;;;;5062734;28;20029;-59
2021/05/04 09:47:11;;;;;;;13.13;2.13;;;11.60;99.90;;;;;;5051130;28;20029;-59
2021/05/04 09:49:39;;;;;;;10.82;2.35;;;11.80;99.90;;;;;;5059369;28;20013;-59
2021/05/04 09:52:23;;;;;;;7.18;1.80;;;12.00;99.90;;;;;;5063837;28;20024;-59
2021/05/04 09:54:50;;;;;;;12.43;2.20;;;12.10;99.90;;;;;;5058645;28;20082;-59
2021/05/04 09:57:32;;;;;;;8.13;2.10;;;12.10;99.90;;;;;;5056772;28;20397;-59
2021/05/04 09:59:58;;;;;;;11.75;2.22;;;12.60;99.90;;;;;;5057099;28;20040;-59
2021/05/04 10:02:24;;;;;;;9.13;1.88;;;12.80;99.90;;;;;;5050210;28;20559;-59
2021/05/04 10:04:53;;;;;;;12.35;1.48;;;13.00;99.90;;;;;;5043214;28;20094;-59
2021/05/04 10:07:21;;;;;;;9.27;1.45;;;12.90;99.90;;;;;;5060779;28;20036;-60
2021/05/04 10:09:48;;;;;;;11.48;1.63;;;12.80;99.90;;;;;;5050691;28;20241;-60
2021/05/04 10:12:14;;;;;;;11.43;1.95;;;12.60;99.90;;;;;;5050811;28;20466;-59
2021/05/04 10:14:41;;;;;;;7.88;1.40;;;12.60;99.90;;;;;;5049270;28;20029;-60
2021/05/04 10:17:08;;;;;;;13.93;1.55;;;12.50;99.90;;;;;;5055246;28;20109;-59
2021/05/04 10:19:38;;;;;;;7.40;1.85;;;12.40;99.90;;;;;;5056529;28;20493;-59
2021/05/04 10:22:06;;;;;;;7.88;1.80;;;12.40;99.90;;;;;;5048135;28;20036;-59
2021/05/04 10:24:35;;;;;;;12.93;1.67;;;12.00;99.90;;;;;;5057307;28;20025;-59
2021/05/04 10:27:05;;;;;;;9.90;1.98;;;12.00;99.90;;;;;;5056526;28;20464;-59
2021/05/04 10:29:31;;;;;;;14.07;1.80;;;12.10;99.90;;;;;;5054413;28;20025;-59
2021/05/04 10:31:59;;;;;;;10.95;1.70;;;12.20;99.90;;;;;;5057165;28;20020;-59
2021/05/04 10:34:26;;;;;;;15.50;1.77;;;12.10;99.90;;;;;;5053111;28;20110;-59
2021/05/04 10:36:56;;;;;;;10.15;2.00;;;12.20;99.90;;;;;;5051370;28;20465;-58
2021/05/04 10:39:45;;;;;;;7.18;1.77;;;12.10;99.90;;;;;;5055583;28;20555;-59
2021/05/04 10:42:14;;;;;;;9.38;2.03;;;12.30;99.90;;;;;;5045395;28;20800;-59
2021/05/04 10:44:58;;;;;;;7.38;1.65;;;12.40;99.90;;;;;;5051748;28;20054;-59
2021/05/04 10:47:46;;;;;;;8.40;1.60;;;12.50;99.90;;;;;;5055851;28;20056;-59
2021/05/04 10:50:41;;;;;;;5.15;1.58;;;12.60;99.90;;;;;;5052847;28;20029;-59
2021/05/04 10:53:08;;;;;;;11.23;1.80;;;12.40;99.90;;;;;;5058641;28;20496;-59
2021/05/04 10:55:51;;;;;;;9.80;1.67;;;12.70;99.90;;;;;;5052392;28;20020;-59
2021/05/04 10:58:27;;;;;;;13.27;2.10;;;12.90;99.90;;;;;;5062886;28;20133;-59
2021/05/04 11:00:56;;;;;;;9.15;1.40;;;12.90;99.90;;;;;;5047703;28;20544;-59
2021/05/04 11:03:31;;;;;;;12.45;2.17;;;12.70;99.90;;;;;;5053686;28;20450;-59
2021/05/04 11:06:27;;;;;;;7.95;1.58;;;12.80;99.90;;;;;;5056903;28;20036;-59
2021/05/04 11:08:52;;;;;;;10.10;1.60;;;12.90;99.90;;;;;;5060409;28;20033;-59
2021/05/04 11:11:22;;;;;;;8.50;1.48;;;13.00;99.80;;;;;;5051573;28;20574;-58
2021/05/04 11:13:57;;;;;;;10.30;1.60;;;12.80;99.90;;;;;;5057437;28;20048;-59
2021/05/04 11:16:46;;;;;;;8.85;1.83;;;12.70;99.90;;;;;;5051292;28;20016;-59
2021/05/04 11:19:16;;;;;;;12.98;2.00;;;12.50;99.90;;;;;;5050533;28;20063;-59
2021/05/04 11:21:50;;;;;;;7.47;1.35;;;12.50;99.90;;;;;;5066836;28;20042;-58
2021/05/04 11:24:22;;;;;;;9.43;2.03;;;12.80;99.90;;;;;;5062766;28;20031;-59
2021/05/04 11:26:51;;;;;;;10.40;1.87;;;13.40;99.90;;;;;;5054034;28;20048;-59
2021/05/04 11:29:31;;;;;;;6.63;1.48;;;14.10;99.10;;;;;;5061491;28;20134;-58
2021/05/04 11:32:28;;;;;;;8.35;1.60;;;14.00;99.20;;;;;;5061954;28;20031;-59
2021/05/04 11:35:01;;;;;;;9.35;1.75;;;14.80;97.60;;;;;;5056997;28;20135;-58
2021/05/04 11:37:28;;;;;;;8.40;1.50;;;14.90;97.20;;;;;;5055545;28;20025;-58
2021/05/04 11:39:57;;;;;;;7.82;1.73;;;15.30;95.60;;;;;;5060847;28;20358;-59
2021/05/04 11:42:26;;;;;;;8.20;2.72;;;15.00;95.30;;;;;;5063798;28;20032;-59
2021/05/04 11:44:52;;;;;;;15.77;2.22;;;14.90;95.20;;;;;;5063271;28;20052;-59
2021/05/04 11:47:26;;;;;;;4.18;1.40;;;14.90;94.60;;;;;;5061251;28;20029;-59
2021/05/04 11:50:21;;;;;;;12.30;1.92;;;14.20;94.40;;;;;;5050024;28;20029;-59
2021/05/04 11:52:49;;;;;;;6.43;1.35;;;13.80;95.00;;;;;;5062090;28;20501;-59
2021/05/04 11:55:23;;;;;;;8.23;1.88;;;13.70;95.40;;;;;;5058314;28;20067;-58
2021/05/04 11:58:06;;;;;;;8.23;1.58;;;13.70;95.60;;;;;;5057346;28;20079;-59
2021/05/04 12:00:36;;;;;;;9.15;1.80;;;14.10;95.70;;;;;;5050345;28;20020;-59
2021/05/04 12:03:11;;;;;;;7.40;1.45;;;14.50;95.00;;;;;;5060743;28;20041;-59
2021/05/04 12:05:37;;;;;;;5.65;1.38;;;14.60;94.50;;;;;;5056417;28;20398;-59
2021/05/04 12:08:04;;;;;;;8.38;1.42;;;14.40;95.00;;;;;;5061010;28;20532;-59
2021/05/04 12:10:35;;;;;;;6.80;1.55;;;14.90;92.70;;;;;;5049597;28;20045;-59
2021/05/04 12:13:05;;;;;;;9.38;1.40;;;15.20;93.20;;;;;;5052953;28;20025;-60
2021/05/04 12:15:37;;;;;;;7.75;1.48;;;15.10;93.10;;;;;;5058810;28;20025;-59
2021/05/04 12:18:12;;;;;;;13.50;1.45;;;14.50;92.60;;;;;;5058043;28;20117;-59
2021/05/04 12:20:44;;;;;;;6.22;1.48;;;14.00;93.80;;;;;;5051398;28;20066;-59
2021/05/04 12:23:12;;;;;;;6.40;1.33;;;14.30;93.00;;;;;;5054960;28;20445;-59
2021/05/04 12:25:51;;;;;;;4.53;1.02;;;14.80;91.00;;;;;;5060017;28;20045;-59
2021/05/04 12:28:22;;;;;;;3.55;1.15;;;15.10;90.70;;;;;;5056994;28;20037;-59
2021/05/04 12:30:50;;;;;;;5.90;1.42;;;14.70;92.00;;;;;;5057851;28;20025;-59
2021/05/04 12:33:19;;;;;;;3.55;1.20;;;14.70;91.40;;;;;;5058631;28;20024;-59
2021/05/04 12:36:12;;;;;;;5.20;1.50;;;15.00;91.20;;;;;;5062517;28;20028;-59
2021/05/04 12:38:39;;;;;;;5.28;1.23;;;14.90;91.00;;;;;;5065325;28;20041;-59
2021/05/04 12:41:12;;;;;;;6.38;1.75;;;14.20;91.90;;;;;;5059532;28;20461;-59
2021/05/04 12:43:41;;;;;;;8.38;1.52;;;14.80;91.50;;;;;;5064861;28;20421;-59
2021/05/04 12:46:12;;;;;;;5.80;1.50;;;15.50;91.20;;;;;;5058241;28;20029;-60
2021/05/04 12:48:40;;;;;;;2.72;0.90;;;15.60;88.00;;;;;;5046655;28;20040;-59
2021/05/04 12:51:08;;;;;;;6.60;1.38;;;15.10;89.20;;;;;;5047757;28;20056;-59
2021/05/04 12:53:39;;;;;;;9.07;1.38;;;14.80;90.20;;;;;;5058270;28;20029;-59
2021/05/04 12:56:19;;;;;;;4.53;0.88;;;14.40;90.80;;;;;;5061041;28;20082;-60
2021/05/04 12:58:57;;;;;;;8.13;1.60;;;14.60;90.30;;;;;;5059675;28;20108;-60
2021/05/04 13:01:57;;;;;;;4.25;1.00;;;15.40;90.00;;;;;;5054937;28;20047;-59